Time,TemperatureF,DewpointF,PressureIn,WindDirection,WindDirectionDegrees,WindSpeedMPH,WindSpeedGustMPH,Humidity,HourlyPrecipIn,Conditions,Clouds,dailyrainin,SoftwareType,DateUTC
2013-02-12 00:02:00,17.4,7.0,30.01,West,270,4.0,7.0,63,0.00,,,0.00,meteohub,2013-02-12 06:02:00,
2013-02-12 00:07:00,17.4,7.0,30.01,West,270,4.0,7.0,63,0.00,,,0.00,meteohub,2013-02-12 06:07:00,
2013-02-12 00:12:00,17.1,6.6,30.01,West,270,5.0,7.0,63,0.00,,,0.00,meteohub,2013-02-12 06:12:00,
2013-02-12 00:17:00,16.9,6.4,30.01,NW,315,5.0,5.0,63,0.00,,,0.00,meteohub,2013-02-12 06:17:00,
2013-02-12 00:22:00,16.7,6.3,30.00,West,270,2.0,5.0,63,0.00,,,0.00,meteohub,2013-02-12 06:22:00,
2013-02-12 00:27:00,16.5,6.1,30.01,WNW,293,4.0,5.0,63,0.00,,,0.00,meteohub,2013-02-12 06:27:00,
2013-02-12 00:32:00,16.3,5.9,30.00,NW,315,4.0,9.0,63,0.00,,,0.00,meteohub,2013-02-12 06:32:00,
2013-02-12 00:37:00,16.3,5.9,30.01,NW,315,4.0,9.0,63,0.00,,,0.00,meteohub,2013-02-12 06:37:00,
2013-02-12 00:42:00,16.2,5.7,30.00,NW,315,2.0,5.0,63,0.00,,,0.00,meteohub,2013-02-12 06:42:00,
2013-02-12 00:47:00,15.8,5.4,30.01,NW,315,2.0,5.0,63,0.00,,,0.00,meteohub,2013-02-12 06:47:00,
2013-02-12 00:52:00,15.6,5.9,30.00,West,270,3.0,4.0,65,0.00,,,0.00,meteohub,2013-02-12 06:52:00,
2013-02-12 00:57:00,15.6,5.9,30.00,NW,315,3.0,3.0,65,0.00,,,0.00,meteohub,2013-02-12 06:57:00,
2013-02-12 01:02:00,15.4,5.7,30.00,West,270,4.0,4.0,65,0.00,,,0.00,meteohub,2013-02-12 07:02:00,
2013-02-12 01:07:00,15.3,5.5,30.00,NW,315,2.0,4.0,65,0.00,,,0.00,meteohub,2013-02-12 07:07:00,
2013-02-12 01:12:00,15.3,5.5,30.01,South,180,2.0,4.0,65,0.00,,,0.00,meteohub,2013-02-12 07:12:00,
2013-02-12 01:17:00,15.1,5.4,30.01,West,270,3.0,4.0,65,0.00,,,0.00,meteohub,2013-02-12 07:17:00,
2013-02-12 01:22:00,14.9,5.2,30.00,NW,315,2.0,4.0,65,0.00,,,0.00,meteohub,2013-02-12 07:22:00,
2013-02-12 01:27:00,14.9,5.2,30.01,West,270,4.0,4.0,65,0.00,,,0.00,meteohub,2013-02-12 07:27:00,
2013-02-12 01:32:00,14.9,5.2,30.01,NW,315,3.0,4.0,65,0.00,,,0.00,meteohub,2013-02-12 07:32:00,
2013-02-12 01:37:00,14.7,5.2,30.00,SW,225,1.0,4.0,65,0.00,,,0.00,meteohub,2013-02-12 07:37:00,
2013-02-12 01:42:00,14.7,5.2,30.00,SW,225,1.0,4.0,65,0.00,,,0.00,meteohub,2013-02-12 07:42:00,
2013-02-12 01:47:00,14.5,5.0,30.00,NW,315,3.0,3.0,65,0.00,,,0.00,meteohub,2013-02-12 07:47:00,
2013-02-12 01:52:00,14.5,5.0,30.01,NW,315,3.0,4.0,65,0.00,,,0.00,meteohub,2013-02-12 07:52:00,
2013-02-12 01:57:00,14.4,4.8,30.00,SW,225,2.0,4.0,65,0.00,,,0.00,meteohub,2013-02-12 07:57:00,
2013-02-12 02:02:00,14.4,4.8,30.01,SW,225,2.0,5.0,65,0.00,,,0.00,meteohub,2013-02-12 08:02:00,
2013-02-12 02:07:00,14.4,5.0,30.01,SW,225,2.0,5.0,66,0.00,,,0.00,meteohub,2013-02-12 08:07:00,
2013-02-12 02:12:00,14.4,5.0,30.01,South,180,2.0,5.0,66,0.00,,,0.00,meteohub,2013-02-12 08:12:00,
2013-02-12 02:17:00,14.4,5.0,30.00,West,270,2.0,2.0,66,0.00,,,0.00,meteohub,2013-02-12 08:17:00,
2013-02-12 02:22:00,14.4,5.0,30.00,West,270,2.0,5.0,66,0.00,,,0.00,meteohub,2013-02-12 08:22:00,
2013-02-12 02:27:00,14.5,5.2,30.01,West,270,3.0,5.0,66,0.00,,,0.00,meteohub,2013-02-12 08:27:00,
2013-02-12 02:32:00,14.7,5.7,30.01,West,270,2.0,5.0,67,0.00,,,0.00,meteohub,2013-02-12 08:32:00,
2013-02-12 02:37:00,14.9,5.9,30.01,NW,315,3.0,5.0,67,0.00,,,0.00,meteohub,2013-02-12 08:37:00,
2013-02-12 02:42:00,15.1,6.4,30.00,West,270,4.0,4.0,68,0.00,,,0.00,meteohub,2013-02-12 08:42:00,
2013-02-12 02:47:00,15.1,6.4,30.01,NW,315,5.0,5.0,68,0.00,,,0.00,meteohub,2013-02-12 08:47:00,
2013-02-12 02:52:00,15.3,7.0,30.00,West,270,4.0,5.0,69,0.00,,,0.00,meteohub,2013-02-12 08:52:00,
2013-02-12 02:57:00,15.4,7.2,30.00,West,270,5.0,5.0,69,0.00,,,0.00,meteohub,2013-02-12 08:57:00,
2013-02-12 03:02:00,15.4,7.2,30.00,NW,315,2.0,5.0,69,0.00,,,0.00,meteohub,2013-02-12 09:02:00,
2013-02-12 03:07:00,15.6,7.3,29.99,NW,315,3.0,5.0,69,0.00,,,0.00,meteohub,2013-02-12 09:07:00,
2013-02-12 03:12:00,15.6,7.3,30.00,West,270,2.0,5.0,69,0.00,,,0.00,meteohub,2013-02-12 09:12:00,
2013-02-12 03:17:00,15.8,7.5,30.00,West,270,4.0,5.0,69,0.00,,,0.00,meteohub,2013-02-12 09:17:00,
2013-02-12 03:22:00,15.8,7.5,30.00,SW,225,4.0,4.0,69,0.00,,,0.00,meteohub,2013-02-12 09:22:00,
2013-02-12 03:27:00,16.0,7.7,30.00,West,270,2.0,5.0,69,0.00,,,0.00,meteohub,2013-02-12 09:27:00,
2013-02-12 03:32:00,16.0,7.7,30.00,WNW,293,4.0,5.0,69,0.00,,,0.00,meteohub,2013-02-12 09:32:00,
2013-02-12 03:37:00,16.2,7.7,29.99,West,270,2.0,5.0,69,0.00,,,0.00,meteohub,2013-02-12 09:37:00,
2013-02-12 03:42:00,16.2,7.7,29.99,West,270,1.0,5.0,69,0.00,,,0.00,meteohub,2013-02-12 09:42:00,
2013-02-12 03:47:00,16.2,7.7,29.99,NW,315,4.0,5.0,69,0.00,,,0.00,meteohub,2013-02-12 09:47:00,
2013-02-12 03:52:00,16.2,7.7,29.99,South,180,3.0,4.0,69,0.00,,,0.00,meteohub,2013-02-12 09:52:00,
2013-02-12 03:57:00,16.3,7.9,29.99,West,270,1.0,4.0,69,0.00,,,0.00,meteohub,2013-02-12 09:57:00,
2013-02-12 04:03:00,16.3,7.9,29.99,West,270,2.0,4.0,69,0.00,,,0.00,meteohub,2013-02-12 10:03:00,
2013-02-12 04:08:00,16.3,7.9,29.99,West,270,2.0,4.0,69,0.00,,,0.00,meteohub,2013-02-12 10:08:00,
2013-02-12 04:13:00,16.3,7.9,29.99,NW,315,2.0,3.0,69,0.00,,,0.00,meteohub,2013-02-12 10:13:00,
2013-02-12 04:18:00,16.3,7.9,29.99,NE,45,2.0,3.0,69,0.00,,,0.00,meteohub,2013-02-12 10:18:00,
2013-02-12 04:23:00,16.5,8.1,29.99,SW,225,5.0,5.0,69,0.00,,,0.00,meteohub,2013-02-12 10:23:00,
2013-02-12 04:28:00,16.5,8.1,29.99,South,180,1.0,5.0,69,0.00,,,0.00,meteohub,2013-02-12 10:28:00,
2013-02-12 04:33:00,16.5,8.1,29.99,SW,225,4.0,5.0,69,0.00,,,0.00,meteohub,2013-02-12 10:33:00,
2013-02-12 04:38:00,16.5,8.1,29.99,West,270,1.0,5.0,69,0.00,,,0.00,meteohub,2013-02-12 10:38:00,
2013-02-12 04:43:00,16.5,8.1,29.98,West,270,1.0,4.0,69,0.00,,,0.00,meteohub,2013-02-12 10:43:00,
2013-02-12 04:48:00,16.5,8.1,29.98,North,0,2.0,4.0,69,0.00,,,0.00,meteohub,2013-02-12 10:48:00,
2013-02-12 04:53:00,16.5,8.1,29.99,NW,315,1.0,3.0,69,0.00,,,0.00,meteohub,2013-02-12 10:53:00,
2013-02-12 04:58:00,16.5,8.1,29.98,SW,225,2.0,4.0,69,0.00,,,0.00,meteohub,2013-02-12 10:58:00,
2013-02-12 05:03:00,16.7,8.2,29.98,North,0,1.0,4.0,69,0.00,,,0.00,meteohub,2013-02-12 11:03:00,
2013-02-12 05:08:00,16.7,8.2,29.98,North,0,1.0,4.0,69,0.00,,,0.00,meteohub,2013-02-12 11:08:00,
2013-02-12 05:13:00,16.7,8.2,29.98,NE,45,1.0,2.0,69,0.00,,,0.00,meteohub,2013-02-12 11:13:00,
2013-02-12 05:18:00,16.7,8.2,29.98,East,90,0.0,2.0,69,0.00,,,0.00,meteohub,2013-02-12 11:18:00,
2013-02-12 05:23:00,16.9,8.4,29.98,SE,135,0.0,8.0,69,0.00,,,0.00,meteohub,2013-02-12 11:23:00,
2013-02-12 05:28:00,16.9,8.4,29.98,East,90,1.0,8.0,69,0.00,,,0.00,meteohub,2013-02-12 11:28:00,
2013-02-12 05:33:00,16.9,8.4,29.97,NE,45,1.0,1.0,69,0.00,,,0.00,meteohub,2013-02-12 11:33:00,
2013-02-12 05:38:00,17.1,8.6,29.97,SE,135,1.0,1.0,69,0.00,,,0.00,meteohub,2013-02-12 11:38:00,
2013-02-12 05:43:00,17.1,8.6,29.97,North,0,1.0,1.0,69,0.00,,,0.00,meteohub,2013-02-12 11:43:00,
2013-02-12 05:48:00,17.1,8.6,29.97,East,90,1.0,6.0,69,0.00,,,0.00,meteohub,2013-02-12 11:48:00,
2013-02-12 05:53:00,17.1,8.6,29.97,East,90,1.0,6.0,69,0.00,,,0.00,meteohub,2013-02-12 11:53:00,
2013-02-12 05:58:00,16.9,8.4,29.97,NE,45,1.0,2.0,69,0.00,,,0.00,meteohub,2013-02-12 11:58:00,
2013-02-12 06:03:00,17.1,8.6,29.97,East,90,1.0,2.0,69,0.00,,,0.00,meteohub,2013-02-12 12:03:00,
2013-02-12 06:08:00,17.1,8.6,29.97,East,90,4.0,4.0,69,0.00,,,0.00,meteohub,2013-02-12 12:08:00,
2013-02-12 06:13:00,17.1,8.6,29.97,South,180,2.0,4.0,69,0.00,,,0.00,meteohub,2013-02-12 12:13:00,
2013-02-12 06:18:00,17.2,8.8,29.97,SE,135,2.0,4.0,69,0.00,,,0.00,meteohub,2013-02-12 12:18:00,
2013-02-12 06:23:00,17.2,8.8,29.96,SE,135,2.0,4.0,69,0.00,,,0.00,meteohub,2013-02-12 12:23:00,
2013-02-12 06:28:00,17.2,8.8,29.96,West,270,2.0,4.0,69,0.00,,,0.00,meteohub,2013-02-12 12:28:00,
2013-02-12 06:33:00,17.2,8.8,29.97,East,90,1.0,2.0,69,0.00,,,0.00,meteohub,2013-02-12 12:33:00,
2013-02-12 06:38:00,17.2,8.8,29.97,NE,45,1.0,2.0,69,0.00,,,0.00,meteohub,2013-02-12 12:38:00,
2013-02-12 06:43:00,17.2,8.8,29.97,East,90,1.0,2.0,69,0.00,,,0.00,meteohub,2013-02-12 12:43:00,
2013-02-12 06:48:00,16.9,8.4,29.96,East,90,1.0,2.0,69,0.00,,,0.00,meteohub,2013-02-12 12:48:00,
2013-02-12 06:53:00,16.5,7.9,29.96,NE,45,0.0,1.0,68,0.00,,,0.00,meteohub,2013-02-12 12:53:00,
2013-02-12 06:58:00,16.3,7.7,29.96,SSW,203,1.0,1.0,68,0.00,,,0.00,meteohub,2013-02-12 12:58:00,
2013-02-12 07:03:00,16.2,7.5,29.96,South,180,1.0,1.0,68,0.00,,,0.00,meteohub,2013-02-12 13:03:00,
2013-02-12 07:08:00,16.2,7.5,29.96,NE,45,0.0,3.0,68,0.00,,,0.00,meteohub,2013-02-12 13:08:00,
2013-02-12 07:13:00,16.0,7.3,29.96,SE,135,0.0,3.0,68,0.00,,,0.00,meteohub,2013-02-12 13:13:00,
2013-02-12 07:18:00,15.6,7.3,29.96,East,90,1.0,3.0,69,0.00,,,0.00,meteohub,2013-02-12 13:18:00,
2013-02-12 07:23:00,15.6,7.3,29.96,East,90,0.0,0.0,69,0.00,,,0.00,meteohub,2013-02-12 13:23:00,
2013-02-12 07:28:00,15.6,7.3,29.95,NE,45,0.0,2.0,69,0.00,,,0.00,meteohub,2013-02-12 13:28:00,
2013-02-12 07:33:00,15.6,7.3,29.95,East,90,0.0,2.0,69,0.00,,,0.00,meteohub,2013-02-12 13:33:00,
2013-02-12 07:38:00,15.6,7.3,29.95,East,90,0.0,2.0,69,0.00,,,0.00,meteohub,2013-02-12 13:38:00,
2013-02-12 07:43:00,15.6,7.5,29.95,SE,135,1.0,0.0,70,0.00,,,0.00,meteohub,2013-02-12 13:43:00,
2013-02-12 07:48:00,15.6,7.5,29.95,East,90,1.0,1.0,70,0.00,,,0.00,meteohub,2013-02-12 13:48:00,
2013-02-12 07:53:00,15.6,7.5,29.95,East,90,0.0,1.0,70,0.00,,,0.00,meteohub,2013-02-12 13:53:00,
2013-02-12 07:58:00,16.7,8.2,29.95,East,90,1.0,4.0,69,0.00,,,0.00,meteohub,2013-02-12 13:58:00,
2013-02-12 08:04:00,17.2,8.8,29.94,ENE,68,1.0,4.0,69,0.00,,,0.00,meteohub,2013-02-12 14:04:00,
2013-02-12 08:08:00,17.2,8.8,29.94,ENE,68,1.0,4.0,69,0.00,,,0.00,meteohub,2013-02-12 14:08:00,
2013-02-12 08:13:00,19.9,12.9,29.94,East,90,1.0,1.0,74,0.00,,,0.00,meteohub,2013-02-12 14:13:00,
2013-02-12 08:19:00,19.9,12.9,29.94,East,90,1.0,1.0,74,0.00,,,0.00,meteohub,2013-02-12 14:19:00,
2013-02-12 08:24:00,19.9,12.9,29.94,East,90,1.0,1.0,74,0.00,,,0.00,meteohub,2013-02-12 14:24:00,
2013-02-12 08:29:00,21.9,14.4,29.93,East,90,2.0,2.0,72,0.00,,,0.00,meteohub,2013-02-12 14:29:00,
2013-02-12 08:34:00,21.9,14.4,29.94,East,90,2.0,2.0,72,0.00,,,0.00,meteohub,2013-02-12 14:34:00,
2013-02-12 08:39:00,21.9,14.4,29.93,East,90,2.0,2.0,72,0.00,,,0.00,meteohub,2013-02-12 14:39:00,
2013-02-12 08:51:00,25.7,14.5,29.94,North,-999,-999.0,-999.0,62,0.00,,,0.00,meteohub,2013-02-12 14:51:00,
2013-02-12 08:56:00,25.7,14.5,29.93,North,-999,-999.0,-999.0,62,0.00,,,0.00,meteohub,2013-02-12 14:56:00,
2013-02-12 09:01:00,25.7,14.5,29.94,North,0,2.0,2.0,62,0.00,,,0.00,meteohub,2013-02-12 15:01:00,
2013-02-12 09:20:00,30.7,21.7,30.03,NE,45,2.0,-999.0,69,0.00,,,0.00,meteohub,2013-02-12 15:20:00,
2013-02-12 09:25:00,28.0,12.7,29.93,SW,225,4.0,-999.0,52,0.00,,,0.00,meteohub,2013-02-12 15:25:00,
2013-02-12 09:30:00,28.0,12.7,29.92,SW,225,4.0,4.0,52,0.00,,,0.00,meteohub,2013-02-12 15:30:00,
2013-02-12 09:35:00,28.0,12.7,29.92,SW,225,2.0,4.0,52,0.00,,,0.00,meteohub,2013-02-12 15:35:00,
2013-02-12 09:40:00,28.0,12.7,29.92,SW,225,2.0,4.0,52,0.00,,,0.00,meteohub,2013-02-12 15:40:00,
2013-02-12 09:45:00,28.0,12.7,29.92,SW,225,2.0,4.0,52,0.00,,,0.00,meteohub,2013-02-12 15:45:00,
2013-02-12 09:50:00,30.2,15.6,29.92,NE,45,3.0,4.0,54,0.00,,,0.00,meteohub,2013-02-12 15:50:00,
2013-02-12 09:55:00,31.1,16.0,29.92,East,90,2.0,3.0,53,0.00,,,0.00,meteohub,2013-02-12 15:55:00,
2013-02-12 10:00:00,31.6,16.5,29.91,SE,135,1.0,3.0,53,0.00,,,0.00,meteohub,2013-02-12 16:00:00,
2013-02-12 10:05:00,31.6,16.5,29.91,SE,135,1.0,3.0,53,0.00,,,0.00,meteohub,2013-02-12 16:05:00,
2013-02-12 10:10:00,31.3,15.3,29.91,SE,135,2.0,3.0,51,0.00,,,0.00,meteohub,2013-02-12 16:10:00,
2013-02-12 10:15:00,32.0,16.0,29.91,NW,315,3.0,3.0,51,0.00,,,0.00,meteohub,2013-02-12 16:15:00,
2013-02-12 10:20:00,28.6,13.1,29.91,SSW,203,2.0,3.0,52,0.00,,,0.00,meteohub,2013-02-12 16:20:00,
2013-02-12 10:25:00,29.5,14.9,29.91,NW,315,2.0,5.0,54,0.00,,,0.00,meteohub,2013-02-12 16:25:00,
2013-02-12 10:30:00,30.9,16.2,29.91,NE,45,2.0,5.0,54,0.00,,,0.00,meteohub,2013-02-12 16:30:00,
2013-02-12 10:35:00,31.1,16.0,29.90,East,90,3.0,5.0,53,0.00,,,0.00,meteohub,2013-02-12 16:35:00,
2013-02-12 10:40:00,31.6,16.0,29.90,NW,315,3.0,5.0,52,0.00,,,0.00,meteohub,2013-02-12 16:40:00,
2013-02-12 10:45:00,32.7,16.5,29.89,NE,45,2.0,5.0,51,0.00,,,0.00,meteohub,2013-02-12 16:45:00,
2013-02-12 10:50:00,34.2,17.4,29.89,East,90,1.0,5.0,50,0.00,,,0.00,meteohub,2013-02-12 16:50:00,
2013-02-12 10:55:00,34.7,17.4,29.89,NW,315,2.0,5.0,49,0.00,,,0.00,meteohub,2013-02-12 16:55:00,
2013-02-12 11:00:00,34.2,16.5,29.89,NW,315,2.0,5.0,48,0.00,,,0.00,meteohub,2013-02-12 17:00:00,
2013-02-12 11:05:00,34.0,16.3,29.89,SW,225,6.0,6.0,48,0.00,,,0.00,meteohub,2013-02-12 17:05:00,
2013-02-12 11:10:00,33.4,16.3,29.88,NE,45,4.0,6.0,49,0.00,,,0.00,meteohub,2013-02-12 17:10:00,
2013-02-12 11:15:00,32.9,15.8,29.89,NW,315,4.0,6.0,49,0.00,,,0.00,meteohub,2013-02-12 17:15:00,
2013-02-12 11:20:00,32.7,16.2,29.89,NW,315,4.0,7.0,50,0.00,,,0.00,meteohub,2013-02-12 17:20:00,
2013-02-12 11:25:00,32.5,16.0,29.88,SE,135,8.0,8.0,50,0.00,,,0.00,meteohub,2013-02-12 17:25:00,
2013-02-12 11:30:00,32.7,16.2,29.88,North,0,2.0,8.0,50,0.00,,,0.00,meteohub,2013-02-12 17:30:00,
2013-02-12 11:35:00,34.5,17.2,29.88,NW,315,1.0,8.0,49,0.00,,,0.00,meteohub,2013-02-12 17:35:00,
2013-02-12 11:40:00,34.2,16.0,29.88,SW,225,5.0,8.0,47,0.00,,,0.00,meteohub,2013-02-12 17:40:00,
2013-02-12 11:45:00,34.3,16.7,29.88,SW,225,6.0,6.0,48,0.00,,,0.00,meteohub,2013-02-12 17:45:00,
2013-02-12 11:50:00,35.1,17.4,29.88,NE,45,2.0,6.0,48,0.01,,,0.01,meteohub,2013-02-12 17:50:00,
2013-02-12 11:55:00,34.2,15.6,29.88,NW,315,4.0,6.0,46,0.01,,,0.01,meteohub,2013-02-12 17:55:00,
2013-02-12 12:00:00,33.3,16.2,29.87,South,180,2.0,8.0,49,0.01,,,0.01,meteohub,2013-02-12 18:00:00,
2013-02-12 12:05:00,33.3,16.2,29.86,South,180,2.0,8.0,49,0.01,,,0.01,meteohub,2013-02-12 18:05:00,
2013-02-12 12:10:00,33.8,16.7,29.86,East,90,2.0,6.0,49,0.02,,,0.02,meteohub,2013-02-12 18:10:00,
2013-02-12 12:15:00,34.3,17.2,29.86,WNW,293,2.0,5.0,49,0.02,,,0.02,meteohub,2013-02-12 18:15:00,
2013-02-12 12:20:00,34.2,17.1,29.86,West,270,1.0,5.0,49,0.02,,,0.02,meteohub,2013-02-12 18:20:00,
2013-02-12 12:25:00,34.5,17.2,29.85,SW,225,4.0,5.0,49,0.04,,,0.04,meteohub,2013-02-12 18:25:00,
2013-02-12 12:30:00,34.3,16.7,29.85,SE,135,3.0,6.0,48,0.04,,,0.04,meteohub,2013-02-12 18:30:00,
2013-02-12 12:35:00,34.7,17.4,29.85,West,270,3.0,6.0,49,0.04,,,0.04,meteohub,2013-02-12 18:35:00,
2013-02-12 12:40:00,35.1,17.4,29.85,SW,225,4.0,5.0,48,0.04,,,0.04,meteohub,2013-02-12 18:40:00,
2013-02-12 12:45:00,35.4,17.6,29.85,West,270,5.0,5.0,48,0.04,,,0.05,meteohub,2013-02-12 18:45:00,
2013-02-12 12:50:00,35.4,16.7,29.84,NE,45,4.0,5.0,46,0.04,,,0.05,meteohub,2013-02-12 18:50:00,
2013-02-12 12:55:00,34.9,16.2,29.84,SW,225,4.0,8.0,46,0.04,,,0.05,meteohub,2013-02-12 18:55:00,
2013-02-12 13:00:00,34.5,16.3,29.84,SSW,203,4.0,8.0,47,0.05,,,0.05,meteohub,2013-02-12 19:00:00,
2013-02-12 13:05:00,35.1,16.9,29.85,SW,225,3.0,8.0,47,0.05,,,0.06,meteohub,2013-02-12 19:05:00,
2013-02-12 13:10:00,35.6,16.9,29.84,NE,45,5.0,8.0,46,0.04,,,0.06,meteohub,2013-02-12 19:10:00,
2013-02-12 13:16:00,35.8,17.1,29.84,South,180,8.0,8.0,46,0.04,,,0.06,meteohub,2013-02-12 19:16:00,
2013-02-12 13:21:00,36.0,16.7,29.84,North,0,8.0,8.0,45,0.05,,,0.07,meteohub,2013-02-12 19:21:00,
2013-02-12 13:26:00,34.9,15.6,29.83,SSW,203,9.0,9.0,45,0.04,,,0.07,meteohub,2013-02-12 19:26:00,
2013-02-12 13:31:00,34.9,15.6,29.83,SSW,203,9.0,9.0,45,0.04,,,0.07,meteohub,2013-02-12 19:31:00,
2013-02-12 13:36:00,35.1,17.8,29.83,SW,225,5.0,9.0,49,0.04,,,0.07,meteohub,2013-02-12 19:36:00,
2013-02-12 13:41:00,34.5,16.9,29.83,West,270,6.0,9.0,48,0.02,,,0.07,meteohub,2013-02-12 19:41:00,
2013-02-12 13:46:00,34.3,17.2,29.82,SW,225,4.0,9.0,49,0.02,,,0.07,meteohub,2013-02-12 19:46:00,
2013-02-12 13:51:00,34.5,17.2,29.82,NW,315,2.0,8.0,49,0.04,,,0.08,meteohub,2013-02-12 19:51:00,
2013-02-12 13:56:00,34.7,17.4,29.82,West,270,3.0,8.0,49,0.04,,,0.08,meteohub,2013-02-12 19:56:00,
2013-02-12 14:01:00,34.9,17.6,29.82,West,270,10.0,10.0,49,0.02,,,0.08,meteohub,2013-02-12 20:01:00,
2013-02-12 14:06:00,34.9,17.6,29.82,West,270,10.0,10.0,49,0.02,,,0.08,meteohub,2013-02-12 20:06:00,
2013-02-12 14:11:00,36.9,18.0,29.82,West,270,2.0,10.0,46,0.02,,,0.08,meteohub,2013-02-12 20:11:00,
2013-02-12 14:16:00,38.5,21.0,29.82,West,270,4.0,10.0,49,0.01,,,0.08,meteohub,2013-02-12 20:16:00,
2013-02-12 14:21:00,38.5,19.6,29.82,SE,135,3.0,10.0,46,0.01,,,0.08,meteohub,2013-02-12 20:21:00,
2013-02-12 14:26:00,38.8,19.8,29.82,NW,315,2.0,5.0,46,0.01,,,0.08,meteohub,2013-02-12 20:26:00,
2013-02-12 14:31:00,39.6,19.4,29.82,NW,315,4.0,7.0,44,0.01,,,0.08,meteohub,2013-02-12 20:31:00,
2013-02-12 14:36:00,39.4,19.2,29.81,NW,315,7.0,7.0,44,0.01,,,0.08,meteohub,2013-02-12 20:36:00,
2013-02-12 14:41:00,39.2,19.0,29.82,SW,225,5.0,7.0,44,0.01,,,0.08,meteohub,2013-02-12 20:41:00,
2013-02-12 14:46:00,40.5,20.8,29.81,NW,315,3.0,7.0,45,0.01,,,0.09,meteohub,2013-02-12 20:46:00,
2013-02-12 14:51:00,41.0,19.6,29.82,NW,315,8.0,8.0,42,0.01,,,0.09,meteohub,2013-02-12 20:51:00,
2013-02-12 14:56:00,40.5,19.8,29.82,SSW,203,4.0,8.0,43,0.01,,,0.09,meteohub,2013-02-12 20:56:00,
2013-02-12 15:01:00,39.9,19.8,29.81,NW,315,4.0,8.0,44,0.01,,,0.09,meteohub,2013-02-12 21:01:00,
2013-02-12 15:06:00,39.6,18.9,29.82,SW,225,7.0,8.0,43,0.01,,,0.09,meteohub,2013-02-12 21:06:00,
2013-02-12 15:11:00,38.8,19.4,29.82,West,270,9.0,9.0,45,0.02,,,0.11,meteohub,2013-02-12 21:11:00,
2013-02-12 15:16:00,38.1,18.7,29.81,NW,315,6.0,9.0,45,0.02,,,0.11,meteohub,2013-02-12 21:16:00,
2013-02-12 15:21:00,37.9,19.0,29.81,SW,225,6.0,9.0,46,0.02,,,0.11,meteohub,2013-02-12 21:21:00,
2013-02-12 15:26:00,38.1,19.2,29.81,West,270,9.0,11.0,46,0.04,,,0.12,meteohub,2013-02-12 21:26:00,
2013-02-12 15:31:00,38.5,19.6,29.81,SSE,158,4.0,11.0,46,0.04,,,0.12,meteohub,2013-02-12 21:31:00,
2013-02-12 15:36:00,39.0,19.9,29.81,East,90,8.0,11.0,46,0.04,,,0.12,meteohub,2013-02-12 21:36:00,
2013-02-12 15:41:00,39.7,20.1,29.81,SW,225,4.0,9.0,45,0.04,,,0.12,meteohub,2013-02-12 21:41:00,
2013-02-12 15:46:00,39.7,20.1,29.82,West,270,5.0,8.0,45,0.02,,,0.12,meteohub,2013-02-12 21:46:00,
2013-02-12 15:51:00,39.0,19.9,29.82,NW,315,4.0,8.0,46,0.02,,,0.12,meteohub,2013-02-12 21:51:00,
2013-02-12 15:56:00,39.2,19.6,29.82,West,270,5.0,8.0,45,0.04,,,0.13,meteohub,2013-02-12 21:56:00,
2013-02-12 16:01:00,39.4,19.8,29.81,East,90,4.0,8.0,45,0.04,,,0.13,meteohub,2013-02-12 22:01:00,
2013-02-12 16:06:00,39.4,19.8,29.82,East,90,4.0,6.0,45,0.02,,,0.13,meteohub,2013-02-12 22:06:00,
2013-02-12 16:11:00,39.0,19.9,29.81,NW,315,4.0,6.0,46,0.02,,,0.13,meteohub,2013-02-12 22:11:00,
2013-02-12 16:16:00,37.2,16.2,29.82,SW,225,6.0,8.0,42,0.02,,,0.13,meteohub,2013-02-12 22:16:00,
2013-02-12 16:21:00,35.8,16.5,29.82,NW,315,7.0,8.0,45,0.01,,,0.13,meteohub,2013-02-12 22:21:00,
2013-02-12 16:26:00,35.1,16.9,29.82,NW,315,6.0,8.0,47,0.01,,,0.13,meteohub,2013-02-12 22:26:00,
2013-02-12 16:31:00,34.2,17.1,29.82,SW,225,8.0,8.0,49,0.01,,,0.13,meteohub,2013-02-12 22:31:00,
2013-02-12 16:36:00,34.2,17.1,29.82,SW,225,8.0,8.0,49,0.01,,,0.13,meteohub,2013-02-12 22:36:00,
2013-02-12 16:41:00,33.1,16.9,29.82,West,270,5.0,9.0,51,0.01,,,0.13,meteohub,2013-02-12 22:41:00,
2013-02-12 16:47:00,32.7,17.1,29.82,NE,45,8.0,9.0,52,0.01,,,0.13,meteohub,2013-02-12 22:47:00,
2013-02-12 16:52:00,32.5,17.2,29.82,WSW,248,8.0,9.0,53,0.00,,,0.13,meteohub,2013-02-12 22:52:00,
2013-02-12 16:57:00,32.4,17.1,29.82,NW,315,7.0,9.0,53,0.00,,,0.13,meteohub,2013-02-12 22:57:00,
2013-02-12 17:02:00,32.2,17.4,29.82,SW,225,8.0,9.0,54,0.00,,,0.13,meteohub,2013-02-12 23:02:00,
2013-02-12 17:07:00,32.2,17.4,29.82,NW,315,5.0,9.0,54,0.00,,,0.13,meteohub,2013-02-12 23:07:00,
2013-02-12 17:12:00,31.8,17.4,29.83,West,270,8.0,8.0,55,0.00,,,0.13,meteohub,2013-02-12 23:12:00,
2013-02-12 17:17:00,31.5,17.6,29.83,NW,315,8.0,8.0,56,0.01,,,0.14,meteohub,2013-02-12 23:17:00,
2013-02-12 17:22:00,31.3,17.8,29.83,NW,315,7.0,8.0,57,0.01,,,0.14,meteohub,2013-02-12 23:22:00,
2013-02-12 17:27:00,30.9,17.4,29.83,NW,315,3.0,8.0,57,0.01,,,0.14,meteohub,2013-02-12 23:27:00,
2013-02-12 17:32:00,30.7,17.8,29.83,West,270,9.0,9.0,58,0.01,,,0.14,meteohub,2013-02-12 23:32:00,
2013-02-12 17:37:00,30.6,17.6,29.83,SW,225,5.0,9.0,58,0.01,,,0.14,meteohub,2013-02-12 23:37:00,
2013-02-12 17:42:00,30.4,17.4,29.82,SE,135,2.0,9.0,58,0.01,,,0.14,meteohub,2013-02-12 23:42:00,
2013-02-12 17:47:00,30.0,17.4,29.82,West,270,4.0,9.0,59,0.01,,,0.14,meteohub,2013-02-12 23:47:00,
2013-02-12 17:52:00,29.8,17.2,29.82,North,0,4.0,8.0,59,0.01,,,0.14,meteohub,2013-02-12 23:52:00,
2013-02-12 17:57:00,29.5,16.9,29.82,West,270,6.0,6.0,59,0.01,,,0.14,meteohub,2013-02-12 23:57:00,
2013-02-12 18:02:00,29.5,16.9,29.82,NW,315,2.0,6.0,59,0.01,,,0.14,meteohub,2013-02-13 00:02:00,
2013-02-12 18:07:00,29.5,16.9,29.82,NW,315,2.0,6.0,59,0.01,,,0.00,meteohub,2013-02-13 00:07:00,
2013-02-12 18:12:00,29.1,16.5,29.82,NW,315,3.0,6.0,59,0.00,,,0.00,meteohub,2013-02-13 00:12:00,
2013-02-12 18:17:00,28.8,16.7,29.82,NW,315,4.0,4.0,60,0.00,,,0.00,meteohub,2013-02-13 00:17:00,
2013-02-12 18:22:00,28.6,16.9,29.82,NW,315,4.0,4.0,61,0.00,,,0.00,meteohub,2013-02-13 00:22:00,
2013-02-12 18:27:00,28.2,15.3,29.82,West,270,5.0,5.0,58,0.00,,,0.00,meteohub,2013-02-13 00:27:00,
2013-02-12 18:32:00,28.0,15.3,29.82,West,270,4.0,5.0,58,0.00,,,0.00,meteohub,2013-02-13 00:32:00,
2013-02-12 18:37:00,27.9,15.1,29.82,West,270,6.0,6.0,58,0.00,,,0.00,meteohub,2013-02-13 00:37:00,
2013-02-12 18:42:00,27.9,15.1,29.82,West,270,6.0,6.0,58,0.00,,,0.00,meteohub,2013-02-13 00:42:00,
2013-02-12 18:47:00,27.7,14.9,29.82,NW,315,4.0,6.0,58,0.00,,,0.00,meteohub,2013-02-13 00:47:00,
2013-02-12 18:52:00,27.5,14.7,29.82,SW,225,3.0,6.0,58,0.00,,,0.00,meteohub,2013-02-13 00:52:00,
2013-02-12 18:57:00,27.3,14.5,29.82,West,270,3.0,6.0,58,0.00,,,0.00,meteohub,2013-02-13 00:57:00,
2013-02-12 19:02:00,27.3,14.5,29.82,West,270,4.0,6.0,58,0.00,,,0.00,meteohub,2013-02-13 01:02:00,
2013-02-12 19:07:00,27.1,14.4,29.82,NW,315,4.0,4.0,58,0.00,,,0.00,meteohub,2013-02-13 01:07:00,
2013-02-12 19:12:00,27.1,14.4,29.82,NW,315,4.0,4.0,58,0.00,,,0.00,meteohub,2013-02-13 01:12:00,
2013-02-12 19:17:00,27.0,14.5,29.82,West,270,3.0,4.0,59,0.00,,,0.00,meteohub,2013-02-13 01:17:00,
2013-02-12 19:22:00,26.8,14.4,29.82,SW,225,5.0,5.0,59,0.00,,,0.00,meteohub,2013-02-13 01:22:00,
2013-02-12 19:27:00,26.6,14.2,29.81,SW,225,2.0,5.0,59,0.00,,,0.00,meteohub,2013-02-13 01:27:00,
2013-02-12 19:32:00,26.6,14.2,29.81,West,270,3.0,5.0,59,0.00,,,0.00,meteohub,2013-02-13 01:32:00,
2013-02-12 19:37:00,26.4,14.4,29.81,SW,225,3.0,5.0,60,0.00,,,0.00,meteohub,2013-02-13 01:37:00,
2013-02-12 19:42:00,26.2,14.2,29.81,West,270,2.0,5.0,60,0.00,,,0.00,meteohub,2013-02-13 01:42:00,
2013-02-12 19:47:00,26.1,14.0,29.81,SW,225,1.0,4.0,60,0.00,,,0.00,meteohub,2013-02-13 01:47:00,
2013-02-12 19:52:00,25.9,14.4,29.81,SW,225,2.0,3.0,61,0.00,,,0.00,meteohub,2013-02-13 01:52:00,
2013-02-12 19:57:00,25.7,14.2,29.81,NW,315,4.0,4.0,61,0.00,,,0.00,meteohub,2013-02-13 01:57:00,
2013-02-12 20:02:00,25.7,14.2,29.81,SW,225,4.0,4.0,61,0.00,,,0.00,meteohub,2013-02-13 02:02:00,
2013-02-12 20:07:00,25.7,14.2,29.81,SW,225,4.0,4.0,61,0.00,,,0.00,meteohub,2013-02-13 02:07:00,
2013-02-12 20:12:00,25.5,14.4,29.82,SW,225,4.0,4.0,62,0.00,,,0.00,meteohub,2013-02-13 02:12:00,
2013-02-12 20:17:00,25.5,14.4,29.81,NW,315,4.0,4.0,62,0.00,,,0.00,meteohub,2013-02-13 02:17:00,
2013-02-12 20:22:00,25.5,14.7,29.81,NW,315,4.0,4.0,63,0.00,,,0.00,meteohub,2013-02-13 02:22:00,
2013-02-12 20:27:00,25.5,14.7,29.81,SW,225,3.0,4.0,63,0.00,,,0.00,meteohub,2013-02-13 02:27:00,
2013-02-12 20:33:00,25.5,14.7,29.81,West,270,4.0,4.0,63,0.00,,,0.00,meteohub,2013-02-13 02:33:00,
2013-02-12 20:38:00,25.5,14.7,29.81,NW,315,3.0,4.0,63,0.00,,,0.00,meteohub,2013-02-13 02:38:00,
2013-02-12 20:43:00,25.5,15.1,29.81,NW,315,5.0,5.0,64,0.00,,,0.00,meteohub,2013-02-13 02:43:00,
2013-02-12 20:48:00,25.5,15.1,29.81,NW,315,4.0,5.0,64,0.00,,,0.00,meteohub,2013-02-13 02:48:00,
2013-02-12 20:53:00,25.5,15.1,29.81,WSW,248,6.0,6.0,64,0.00,,,0.00,meteohub,2013-02-13 02:53:00,
2013-02-12 20:58:00,25.5,14.7,29.81,West,270,8.0,8.0,63,0.00,,,0.00,meteohub,2013-02-13 02:58:00,
2013-02-12 21:03:00,25.3,14.5,29.81,WNW,293,4.0,8.0,63,0.00,,,0.00,meteohub,2013-02-13 03:03:00,
2013-02-12 21:08:00,25.3,14.5,29.81,NW,315,5.0,8.0,63,0.00,,,0.00,meteohub,2013-02-13 03:08:00,
2013-02-12 21:13:00,25.2,14.4,29.81,West,270,6.0,8.0,63,0.00,,,0.00,meteohub,2013-02-13 03:13:00,
2013-02-12 21:18:00,25.2,14.4,29.81,West,270,7.0,8.0,63,0.00,,,0.00,meteohub,2013-02-13 03:18:00,
2013-02-12 21:23:00,25.0,14.2,29.81,SW,225,7.0,8.0,63,0.00,,,0.00,meteohub,2013-02-13 03:23:00,
2013-02-12 21:28:00,25.0,14.5,29.81,NW,315,6.0,7.0,64,0.00,,,0.00,meteohub,2013-02-13 03:28:00,
2013-02-12 21:33:00,24.8,14.4,29.81,WSW,248,6.0,7.0,64,0.00,,,0.00,meteohub,2013-02-13 03:33:00,
2013-02-12 21:38:00,24.8,14.4,29.80,NW,315,5.0,7.0,64,0.00,,,0.00,meteohub,2013-02-13 03:38:00,
2013-02-12 21:43:00,24.8,14.4,29.80,NW,315,5.0,7.0,64,0.00,,,0.00,meteohub,2013-02-13 03:43:00,
2013-02-12 21:48:00,24.8,14.4,29.80,West,270,7.0,7.0,64,0.00,,,0.00,meteohub,2013-02-13 03:48:00,
2013-02-12 21:53:00,24.8,14.4,29.80,West,270,5.0,11.0,64,0.00,,,0.00,meteohub,2013-02-13 03:53:00,
2013-02-12 21:58:00,24.6,14.5,29.80,West,270,4.0,11.0,65,0.00,,,0.00,meteohub,2013-02-13 03:58:00,
2013-02-12 22:03:00,24.6,14.5,29.80,West,270,4.0,11.0,65,0.00,,,0.00,meteohub,2013-02-13 04:03:00,
2013-02-12 22:08:00,24.6,14.5,29.80,West,270,4.0,6.0,65,0.00,,,0.00,meteohub,2013-02-13 04:08:00,
2013-02-12 22:13:00,24.3,14.2,29.80,West,270,3.0,5.0,65,0.00,,,0.00,meteohub,2013-02-13 04:13:00,
2013-02-12 22:18:00,24.3,14.2,29.80,North,0,2.0,4.0,65,0.00,,,0.00,meteohub,2013-02-13 04:18:00,
2013-02-12 22:23:00,24.1,14.0,29.80,WSW,248,5.0,6.0,65,0.00,,,0.00,meteohub,2013-02-13 04:23:00,
2013-02-12 22:28:00,23.9,13.8,29.80,NW,315,5.0,6.0,65,0.00,,,0.00,meteohub,2013-02-13 04:28:00,
2013-02-12 22:33:00,23.7,13.6,29.80,West,270,4.0,5.0,65,0.00,,,0.00,meteohub,2013-02-13 04:33:00,
2013-02-12 22:38:00,23.7,13.6,29.80,NW,315,2.0,5.0,65,0.00,,,0.00,meteohub,2013-02-13 04:38:00,
2013-02-12 22:43:00,23.5,13.5,29.80,NW,315,4.0,5.0,65,0.00,,,0.00,meteohub,2013-02-13 04:43:00,
2013-02-12 22:48:00,23.5,13.5,29.80,NW,315,3.0,7.0,65,0.00,,,0.00,meteohub,2013-02-13 04:48:00,
2013-02-12 22:53:00,23.5,13.5,29.80,WSW,248,4.0,7.0,65,0.00,,,0.00,meteohub,2013-02-13 04:53:00,
2013-02-12 22:58:00,23.5,13.8,29.80,NW,315,5.0,7.0,66,0.00,,,0.00,meteohub,2013-02-13 04:58:00,
2013-02-12 23:00:00,23.5,13.8,29.79,NW,315,5.0,7.0,66,0.00,,,0.00,meteohub,2013-02-13 05:00:00,
2013-02-12 23:05:00,23.4,13.3,29.79,West,270,4.0,5.0,65,0.00,,,0.00,meteohub,2013-02-13 05:05:00,
2013-02-12 23:10:00,23.2,13.1,29.79,WSW,248,2.0,5.0,65,0.00,,,0.00,meteohub,2013-02-13 05:10:00,
2013-02-12 23:15:00,23.0,12.9,29.79,SW,225,2.0,5.0,65,0.00,,,0.00,meteohub,2013-02-13 05:15:00,
2013-02-12 23:20:00,22.8,13.1,29.79,SW,225,2.0,4.0,66,0.00,,,0.00,meteohub,2013-02-13 05:20:00,
2013-02-12 23:25:00,22.8,13.1,29.78,West,270,2.0,3.0,66,0.00,,,0.00,meteohub,2013-02-13 05:25:00,
2013-02-12 23:30:00,22.6,12.9,29.78,West,270,2.0,3.0,66,0.00,,,0.00,meteohub,2013-02-13 05:30:00,
2013-02-12 23:35:00,22.6,12.9,29.78,West,270,2.0,2.0,66,0.00,,,0.00,meteohub,2013-02-13 05:35:00,
2013-02-12 23:40:00,22.1,12.6,29.78,SW,225,4.0,4.0,66,0.00,,,0.00,meteohub,2013-02-13 05:40:00,
2013-02-12 23:45:00,22.1,12.7,29.78,West,270,4.0,4.0,67,0.00,,,0.00,meteohub,2013-02-13 05:45:00,
2013-02-12 23:50:00,22.1,12.7,29.78,SW,225,2.0,4.0,67,0.00,,,0.00,meteohub,2013-02-13 05:50:00,
2013-02-12 23:55:00,22.1,12.7,29.77,NW,315,4.0,4.0,67,0.00,,,0.00,meteohub,2013-02-13 05:55:00,